Detalii statie Girov TCE 3 BRAZI [000011A2]

Toti senzorii

Date Temperatura solului [C]Precipitatii [mm]Voltaj baterie [mV]Leaf Wetness [Min]HC Air temperature [C]HC Relative humidity [%]Punctul de roua [C]
medieminmaxsumaultimatimpmedieminmaxmediemediemin
2018-06-20 10:00:00 0 6982 0 25.96 25.5 26.43 100 25.9 25.5
2018-06-20 11:00:00 0 6992 0 27.05 25.44 29.35 100 27 25.4
2018-06-20 12:00:00 0 6992 0 27.35 26.41 27.8 100 27.3 26.4
2018-06-20 13:00:00 0 6992 0 27.97 27.3 28.57 100 27.9 27.3
2018-06-20 14:00:00 0 6992 0 28.11 27.41 29.02 100 28 27.4
2018-06-20 15:00:00 0 6972 0 27.61 26.72 28.52 100 27.5 26.7
2018-06-20 16:00:00 0 6992 0 27.68 26.46 28.44 100 27.6 26.4
2018-06-20 17:00:00 0 6992 0 27.95 27.35 28.4 100 27.9 27.3
2018-06-20 18:00:00 0 6982 0 27.21 26.72 27.95 100 27.1 26.7
2018-06-20 19:00:00 0 6844 0 26.53 26.13 26.96 100 26.5 26.1
2018-06-20 20:00:00 0 6972 0 25.34 24.48 26 100 25.3 24.4
2018-06-20 21:00:00 0 6610 0 22.69 21.36 24.42 100 22.6 21.3
2018-06-20 22:00:00 0 6582 0 20.21 19.86 21 100 20.1 19.8
2018-06-20 23:00:00 0 6572 0 19.77 19.51 20.03 100 19.7 19.5
2018-06-21 00:00:00 0 6562 0 18.97 18.66 19.43 100 18.9 18.6
2018-06-21 01:00:00 0 6552 0 18.35 18.11 18.65 100 18.3 18.1
2018-06-21 02:00:00 0 6552 0 18.8 18.6 18.95 100 18.7 18.6
2018-06-21 03:00:00 0 6542 0 19.06 18.67 19.35 100 19 18.6
2018-06-21 04:00:00 0 6532 0 18.3 17.73 18.86 100 18.2 17.7
2018-06-21 05:00:00 0 6532 0 17.15 16.76 17.58 100 17.1 16.7
2018-06-21 06:00:00 0 6532 0 17.14 16.75 17.63 100 17 16.7
2018-06-21 07:00:00 0 6582 0 17.94 17.67 18.27 100 17.9 17.6
2018-06-21 08:00:00 0 6748 0 19.77 18.48 21.44 100 19.7 18.4
2018-06-21 09:00:00 0 6982 0 23.97 22.49 24.84 100 23.9 22.4
2018-06-21 10:00:00 0 6992 0 26.44 25.49 27.45 100 26.3 25.4
2018-06-21 11:00:00 0 6992 0 27.63 27.08 28.04 100 27.5 27
2018-06-21 12:00:00 0 6992 0 28.64 27.81 29.57 100 28.5 27.8
2018-06-21 13:00:00 0 6992 0 29.44 28.8 30.22 100 29.4 28.8
2018-06-21 14:00:00 0 6982 0 30.39 29.63 31.12 100 30.3 29.6
2018-06-21 15:00:00 0 6992 0 29.55 28.17 30.36 100 29.5 28.1
2018-06-21 16:00:00 0 6992 0 29.62 29.29 30.04 100 29.5 29.2
2018-06-21 17:00:00 0 6992 0 29.79 28.36 30.53 100 29.7 28.3
2018-06-21 18:00:00 0 6982 0 29.09 28.39 29.53 100 29 28.3
2018-06-21 19:00:00 0 6708 0 26.71 24 29.29 100 26.6 24
2018-06-21 20:00:00 0 6650 0 22.61 21.99 23.52 100 22.5 21.9
2018-06-21 21:00:00 0 6582 0 21.22 20.54 21.76 100 21.1 20.5
2018-06-21 22:00:00 0 6572 0 20.06 19.66 20.43 100 20 19.6
2018-06-21 23:00:00 0 6572 0 18.78 18.29 19.59 100 18.7 18.2
2018-06-22 00:00:00 0 6562 0 17.55 17.12 18.15 100 17.5 17.1
2018-06-22 01:00:00 0 6552 0 16.99 16.82 17.17 100 16.9 16.8
2018-06-22 02:00:00 0 6542 0 16.72 16.53 16.87 100 16.6 16.5
2018-06-22 03:00:00 0 6542 0 18.09 16.85 19.14 100 18 16.8
2018-06-22 04:00:00 0 6532 0 18.83 17.76 19.35 100 18.7 17.7
2018-06-22 05:00:00 0 6532 0 17.39 17.15 17.64 100 17.3 17.1
2018-06-22 06:00:00 0 6532 0 17.25 16.39 18.06 100 17.2 16.3
2018-06-22 07:00:00 0 6590 0 19.27 18.08 20.59 100 19.2 18
2018-06-22 08:00:00 0 6668 0 22.46 20.98 24.11 100 22.4 20.9
2018-06-22 09:00:00 0 6942 0 26.08 24.08 28.33 100 26 24